Time;durP1;ratioP1;P1;durP2;ratioP2;P2;SDS_P1;SDS_P2;PMS_P1;PMS_P2;Temp;Humidity;BMP_temperature;BMP_pressure;BME280_temperature;BME280_humidity;BME280_pressure;Samples;Min_cycle;Max_cycle;Signal;HPM_P1;HPM_P2
2023/10/26 00:00:40;;;;;;;6.72;0.75;;;;;;;12.47;100.00;93160.09;5095388;28;20032;-85
2023/10/26 00:08:52;;;;;;;4.25;0.68;;;;;;;12.92;100.00;93169.53;5099592;28;20078;-85
2023/10/26 00:11:17;;;;;;;2.45;0.60;;;;;;;13.13;100.00;93158.38;5099345;28;20065;-85
2023/10/26 00:14:01;;;;;;;1.75;0.60;;;;;;;12.98;100.00;93157.00;5099596;28;20031;-85
2023/10/26 00:16:27;;;;;;;3.38;0.73;;;;;;;12.73;100.00;93167.22;5100534;28;20344;-85
2023/10/26 00:18:52;;;;;;;5.03;1.00;;;;;;;12.88;100.00;93176.50;5100474;28;20020;-85
2023/10/26 00:21:18;;;;;;;1.83;0.65;;;;;;;12.98;100.00;93164.88;5099167;28;20034;-85
2023/10/26 00:23:43;;;;;;;5.85;1.00;;;;;;;13.21;100.00;93159.44;5099250;28;20050;-85
2023/10/26 00:26:09;;;;;;;6.97;1.00;;;;;;;13.13;100.00;93169.66;5082537;28;20024;-86
2023/10/26 00:28:53;;;;;;;1.17;0.73;;;;;;;13.06;100.00;93153.59;5099120;28;20126;-85
2023/10/26 00:31:37;;;;;;;3.78;0.80;;;;;;;12.97;100.00;93171.22;5100471;28;20181;-85
2023/10/26 00:34:03;;;;;;;4.55;0.80;;;;;;;13.00;100.00;93166.13;5100126;28;20455;-85
2023/10/26 00:36:29;;;;;;;5.47;0.80;;;;;;;13.09;100.00;93162.69;5098983;28;20024;-86
2023/10/26 00:39:13;;;;;;;6.70;0.88;;;;;;;13.25;100.00;93155.84;5099536;28;20032;-85
2023/10/26 00:41:39;;;;;;;3.15;0.65;;;;;;;13.01;100.00;93138.75;5099974;28;20031;-86
2023/10/26 00:44:04;;;;;;;5.88;0.90;;;;;;;13.01;100.00;93151.91;5100005;28;20028;-85
2023/10/26 00:46:30;;;;;;;6.53;1.02;;;;;;;12.95;100.00;93136.59;5098752;28;20028;-85
2023/10/26 00:49:15;;;;;;;5.32;0.98;;;;;;;12.75;100.00;93141.41;5098860;28;20031;-85
2023/10/26 00:51:45;;;;;;;5.18;0.70;;;;;;;12.52;100.00;93156.56;5099095;28;20035;-85
2023/10/26 00:54:10;;;;;;;4.85;0.80;;;;;;;12.67;100.00;93152.69;5098636;28;20468;-85
2023/10/26 00:56:36;;;;;;;5.72;1.10;;;;;;;12.87;100.00;93157.31;5081949;28;20047;-85
2023/10/26 00:59:03;;;;;;;5.05;0.60;;;;;;;12.92;100.00;93166.16;5099642;28;20449;-85
2023/10/26 01:01:47;;;;;;;2.65;0.75;;;;;;;13.18;100.00;93162.69;5098672;28;20349;-85
2023/10/26 01:04:31;;;;;;;4.43;0.60;;;;;;;13.29;100.00;93171.78;5099624;28;20158;-85
2023/10/26 01:06:57;;;;;;;3.90;0.80;;;;;;;13.69;100.00;93173.38;5099496;28;20433;-85
2023/10/26 01:09:22;;;;;;;7.10;0.75;;;;;;;13.64;100.00;93176.22;5099419;28;20028;-85
2023/10/26 01:11:48;;;;;;;2.40;0.60;;;;;;;13.93;100.00;93167.59;5099361;28;20459;-85
2023/10/26 01:14:32;;;;;;;4.40;0.70;;;;;;;14.04;100.00;93170.63;5097598;28;20421;-85
2023/10/26 01:16:57;;;;;;;4.50;1.00;;;;;;;14.01;100.00;93155.47;5098712;28;20357;-85
2023/10/26 01:19:39;;;;;;;2.97;0.65;;;;;;;13.69;100.00;93145.22;5097989;28;20024;-85
2023/10/26 01:22:05;;;;;;;5.90;0.70;;;;;;;13.59;100.00;93152.72;5099232;28;20096;-85
2023/10/26 01:24:30;;;;;;;6.32;0.98;;;;;;;13.57;100.00;93148.53;5081304;28;20122;-85
2023/10/26 01:27:03;;;;;;;4.82;0.70;;;;;;;14.18;100.00;93143.28;5087129;28;20352;-85
2023/10/26 01:29:28;;;;;;;7.95;0.75;;;;;;;14.08;100.00;93136.53;5097908;28;20031;-85
2023/10/26 01:32:12;;;;;;;3.85;1.10;;;;;;;14.39;100.00;93140.66;5066800;28;20031;-85
2023/10/26 01:34:38;;;;;;;4.60;0.98;;;;;;;14.58;100.00;93148.13;5078803;28;20457;-85
2023/10/26 01:37:04;;;;;;;3.63;0.82;;;;;;;14.55;100.00;93141.63;5077611;28;20028;-85
2023/10/26 01:39:30;;;;;;;2.55;0.75;;;;;;;14.63;100.00;93140.00;5077553;28;20025;-85
2023/10/26 01:42:14;;;;;;;7.28;1.17;;;;;;;14.73;100.00;93138.09;5060841;28;20032;-85
2023/10/26 01:44:39;;;;;;;7.63;1.05;;;;;;;14.70;100.00;93140.28;5078690;28;20027;-85
2023/10/26 01:47:06;;;;;;;5.82;0.80;;;;;;;14.94;100.00;93146.00;5077338;28;20064;-85
2023/10/26 01:52:16;;;;;;;5.35;0.68;;;;;;;14.72;100.00;93133.94;5077165;28;20163;-85
2023/10/26 01:54:41;;;;;;;3.42;0.80;;;;;;;14.67;100.00;93140.13;5077193;28;20029;-85
2023/10/26 01:57:07;;;;;;;5.10;0.80;;;;;;;14.76;100.00;93137.47;5060735;28;20345;-86
2023/10/26 01:59:35;;;;;;;7.50;0.82;;;;;;;14.88;100.00;93134.88;5077475;28;20024;-85
2023/10/26 02:02:00;;;;;;;3.10;0.68;;;;;;;14.90;100.00;93137.94;5078813;28;20025;-85
2023/10/26 02:04:25;;;;;;;5.03;0.90;;;;;;;14.90;100.00;93143.22;5076913;28;20028;-85
2023/10/26 02:06:51;;;;;;;6.53;0.70;;;;;;;14.89;100.00;93135.63;5078121;28;20020;-85
2023/10/26 02:09:35;;;;;;;3.63;0.70;;;;;;;14.88;100.00;93140.16;5077139;28;20381;-86
2023/10/26 02:12:00;;;;;;;8.82;1.00;;;;;;;14.55;100.00;93143.47;5076734;28;20036;-85
2023/10/26 02:15:03;;;;;;;2.10;0.63;;;;;;;14.78;100.00;93141.31;5078031;28;20093;-85
2023/10/26 02:17:29;;;;;;;4.28;1.00;;;;;;;14.53;100.00;93140.38;5077811;28;20032;-86
2023/10/26 02:20:19;;;;;;;5.57;0.98;;;;;;;14.63;100.00;93126.03;5077915;28;20020;-85
2023/10/26 02:22:44;;;;;;;9.25;0.85;;;;;;;14.86;100.00;93128.38;5079423;28;20337;-85
2023/10/26 02:25:10;;;;;;;7.15;0.80;;;;;;;14.81;100.00;93131.97;5069425;28;20032;-85
2023/10/26 02:27:35;;;;;;;6.05;1.05;;;;;;;14.63;100.00;93147.91;5070948;28;20130;-85
2023/10/26 02:30:01;;;;;;;5.90;0.80;;;;;;;14.77;100.00;93141.63;5070436;28;20024;-86
2023/10/26 02:32:26;;;;;;;3.60;0.80;;;;;;;14.79;100.00;93136.81;5085973;28;20025;-85
2023/10/26 02:34:52;;;;;;;5.07;1.35;;;;;;;14.62;100.00;93143.75;5085472;28;20027;-85
2023/10/26 02:37:40;;;;;;;6.05;0.90;;;;;;;14.64;100.00;93138.91;5086859;28;20019;-85
2023/10/26 02:40:08;;;;;;;6.07;0.90;;;;;;;14.65;100.00;93142.34;5085435;28;20027;-85
2023/10/26 02:42:34;;;;;;;6.10;0.93;;;;;;;14.42;100.00;93130.25;5068280;28;20021;-86
2023/10/26 02:45:18;;;;;;;3.08;0.55;;;;;;;14.52;100.00;93138.84;5087653;28;20042;-86
2023/10/26 02:47:44;;;;;;;3.33;0.75;;;;;;;14.57;100.00;93120.97;5087094;28;20349;-85
2023/10/26 02:50:10;;;;;;;9.43;0.73;;;;;;;14.62;100.00;93122.66;5085637;28;20032;-85
2023/10/26 02:52:36;;;;;;;10.18;0.70;;;;;;;14.45;100.00;93115.66;5087598;28;20349;-85
2023/10/26 02:55:01;;;;;;;4.05;0.70;;;;;;;14.42;100.00;93119.72;5070593;28;20039;-85
2023/10/26 03:00:12;;;;;;;3.17;0.80;;;;;;;14.39;100.00;93098.50;5087216;28;20027;-85
2023/10/26 03:02:37;;;;;;;4.30;0.82;;;;;;;14.30;100.00;93106.47;5088637;28;20026;-85
2023/10/26 03:05:03;;;;;;;5.45;0.90;;;;;;;14.39;100.00;93104.53;5087120;28;20023;-85
2023/10/26 03:07:29;;;;;;;3.10;0.80;;;;;;;14.30;100.00;93097.78;5088185;28;20039;-86
2023/10/26 03:09:54;;;;;;;2.88;0.80;;;;;;;14.09;100.00;93106.47;5067990;28;20032;-85
2023/10/26 03:15:04;;;;;;;3.17;0.70;;;;;;;13.81;100.00;93102.44;5085634;28;20602;-85
2023/10/26 03:17:30;;;;;;;5.82;1.10;;;;;;;13.82;100.00;93116.38;5073542;28;20048;-85
2023/10/26 03:19:55;;;;;;;3.22;0.98;;;;;;;13.88;100.00;93122.22;5088102;28;20429;-85
2023/10/26 03:22:21;;;;;;;1.60;0.60;;;;;;;14.09;100.00;93127.53;5086499;28;20020;-85
2023/10/26 03:24:49;;;;;;;4.75;0.70;;;;;;;14.21;100.00;93127.59;5085850;28;20027;-86
2023/10/26 03:27:33;;;;;;;4.97;0.82;;;;;;;14.45;100.00;93131.47;5083976;28;20024;-85
2023/10/26 03:29:58;;;;;;;10.95;0.90;;;;;;;14.48;100.00;93130.81;5069324;28;20111;-85
2023/10/26 03:32:24;;;;;;;4.53;0.70;;;;;;;14.50;100.00;93130.50;5083635;28;20348;-85
2023/10/26 03:34:49;;;;;;;6.13;0.90;;;;;;;14.52;100.00;93139.63;5086215;28;20028;-85
2023/10/26 03:39:59;;;;;;;4.45;0.70;;;;;;;14.53;100.00;93138.53;5085934;28;20036;-85
2023/10/26 03:42:25;;;;;;;5.20;0.68;;;;;;;14.87;100.00;93135.19;5070189;28;20032;-85
2023/10/26 03:44:50;;;;;;;6.57;0.55;;;;;;;14.60;100.00;93147.78;5067389;28;20022;-85
2023/10/26 03:47:34;;;;;;;8.45;0.90;;;;;;;14.45;100.00;93136.72;5085978;28;20032;-85
2023/10/26 03:50:00;;;;;;;6.05;1.08;;;;;;;14.34;100.00;93135.56;5085795;28;20028;-85
2023/10/26 03:55:09;;;;;;;7.10;0.70;;;;;;;14.22;100.00;93139.69;5087192;28;20472;-85
2023/10/26 03:57:53;;;;;;;6.55;0.70;;;;;;;14.05;100.00;93129.25;5083154;28;20020;-85
2023/10/26 04:00:19;;;;;;;3.90;0.80;;;;;;;14.00;100.00;93130.97;5083136;28;20028;-84
2023/10/26 04:02:44;;;;;;;4.68;0.82;;;;;;;14.09;100.00;93132.78;5086782;28;20035;-84
2023/10/26 04:05:10;;;;;;;4.68;0.88;;;;;;;14.09;100.00;93130.16;5076766;28;20029;-85
2023/10/26 04:07:38;;;;;;;6.03;1.33;;;;;;;14.31;100.00;93123.81;5078500;28;20043;-85
2023/10/26 04:10:06;;;;;;;3.17;0.80;;;;;;;14.34;100.00;93122.38;5084709;28;20024;-85
2023/10/26 04:12:31;;;;;;;7.68;0.82;;;;;;;14.33;100.00;93119.00;5087084;28;20024;-85
2023/10/26 04:14:57;;;;;;;4.75;1.02;;;;;;;14.31;100.00;93123.81;5078870;28;20115;-85
2023/10/26 04:17:22;;;;;;;3.33;1.15;;;;;;;14.02;100.00;93127.25;5081980;28;20119;-85
2023/10/26 04:20:07;;;;;;;5.40;0.95;;;;;;;13.87;100.00;93129.34;5093144;28;20028;-85
2023/10/26 04:22:33;;;;;;;4.28;1.02;;;;;;;13.81;100.00;93125.34;5087076;28;20380;-85
2023/10/26 04:24:58;;;;;;;3.85;1.15;;;;;;;13.64;100.00;93128.84;5080786;28;20029;-85
2023/10/26 04:27:24;;;;;;;3.05;0.70;;;;;;;13.51;100.00;93109.56;5091118;28;20039;-85
2023/10/26 04:29:50;;;;;;;3.33;0.75;;;;;;;13.18;100.00;93120.59;5095088;28;20115;-85
2023/10/26 04:32:35;;;;;;;5.22;0.93;;;;;;;13.12;100.00;93115.53;5095005;28;20128;-85
2023/10/26 04:35:01;;;;;;;3.53;0.80;;;;;;;12.79;100.00;93110.81;5074998;28;20028;-85
2023/10/26 04:37:26;;;;;;;5.57;1.20;;;;;;;12.80;100.00;93114.97;5075037;28;20033;-85
2023/10/26 04:39:52;;;;;;;5.95;0.80;;;;;;;12.82;100.00;93115.44;5075225;28;20032;-84
2023/10/26 04:42:18;;;;;;;9.18;1.10;;;;;;;12.83;100.00;93122.22;5069797;28;20031;-84
2023/10/26 04:44:43;;;;;;;5.32;0.70;;;;;;;12.88;100.00;93126.56;5091786;28;20437;-85
2023/10/26 04:49:52;;;;;;;6.28;0.93;;;;;;;12.81;100.00;93116.50;5092373;28;20416;-85
2023/10/26 04:52:36;;;;;;;2.35;0.60;;;;;;;12.69;100.00;93116.38;5080578;28;20036;-85
2023/10/26 04:55:20;;;;;;;5.80;0.90;;;;;;;12.78;100.00;93116.34;5079508;28;20029;-84
2023/10/26 04:57:46;;;;;;;5.57;0.75;;;;;;;12.61;100.00;93109.25;5088546;28;20460;-85
2023/10/26 05:00:12;;;;;;;2.85;0.70;;;;;;;12.69;100.00;93104.00;5098751;28;20031;-85
2023/10/26 05:02:38;;;;;;;8.63;0.80;;;;;;;12.72;100.00;93105.22;5098402;28;20032;-85
2023/10/26 05:05:04;;;;;;;8.88;0.90;;;;;;;12.73;100.00;93104.16;5099365;28;20073;-86
2023/10/26 05:07:48;;;;;;;7.00;0.88;;;;;;;12.62;100.00;93103.69;5098683;28;20364;-85
2023/10/26 05:10:14;;;;;;;9.15;1.00;;;;;;;12.69;100.00;93093.47;5098281;28;20436;-85
2023/10/26 05:12:39;;;;;;;5.93;0.95;;;;;;;12.39;100.00;93098.59;5099942;28;20030;-85
2023/10/26 05:15:05;;;;;;;2.65;0.65;;;;;;;12.32;100.00;93105.41;5098443;28;20072;-85
2023/10/26 05:17:49;;;;;;;5.25;0.80;;;;;;;12.29;100.00;93102.31;5098218;28;20066;-85
2023/10/26 05:20:52;;;;;;;6.40;1.08;;;;;;;12.48;100.00;93103.09;5098339;28;20062;-85
2023/10/26 05:23:55;;;;;;;4.78;0.70;;;;;;;12.63;100.00;93097.34;5098313;28;20484;-85
2023/10/26 05:26:20;;;;;;;5.53;0.85;;;;;;;12.50;100.00;93104.34;5099077;28;20344;-85
2023/10/26 05:28:46;;;;;;;3.28;0.75;;;;;;;12.50;100.00;93112.22;5081204;28;20036;-85
2023/10/26 05:31:12;;;;;;;3.30;0.60;;;;;;;12.64;100.00;93127.06;5097822;28;20063;-85
2023/10/26 05:33:37;;;;;;;10.48;0.93;;;;;;;12.50;100.00;93121.94;5097896;28;20056;-85
2023/10/26 05:36:03;;;;;;;4.93;0.73;;;;;;;12.58;100.00;93124.56;5098164;28;20049;-85
2023/10/26 05:38:29;;;;;;;6.75;0.70;;;;;;;12.70;100.00;93133.69;5097819;28;20028;-85
2023/10/26 05:41:13;;;;;;;4.13;0.70;;;;;;;12.84;100.00;93115.88;5097650;28;20024;-85
2023/10/26 05:43:57;;;;;;;1.15;0.40;;;;;;;12.71;100.00;93122.88;5097741;28;20038;-85
2023/10/26 05:46:41;;;;;;;6.88;1.10;;;;;;;12.70;100.00;93131.84;5098871;28;20077;-85
2023/10/26 05:52:04;;;;;;;5.20;1.27;;;;;;;12.95;100.00;93141.84;5097716;28;20077;-85
2023/10/26 05:54:48;;;;;;;10.10;1.40;;;;;;;12.65;100.00;93154.88;5098768;28;20032;-85
2023/10/26 05:57:14;;;;;;;7.38;0.95;;;;;;;12.73;100.00;93161.97;5098582;28;20051;-85
2023/10/26 05:59:40;;;;;;;3.22;0.70;;;;;;;12.66;100.00;93157.16;5097109;28;20020;-85
2023/10/26 06:02:06;;;;;;;3.42;0.73;;;;;;;12.60;100.00;93142.66;5098453;28;20032;-85
2023/10/26 06:04:31;;;;;;;5.85;0.80;;;;;;;12.72;100.00;93134.94;5097239;28;20437;-85
2023/10/26 06:06:57;;;;;;;3.95;0.57;;;;;;;12.82;100.00;93149.59;5080498;28;20032;-85
2023/10/26 06:09:41;;;;;;;3.67;0.90;;;;;;;13.12;100.00;93159.44;5097175;28;20458;-85
2023/10/26 06:12:07;;;;;;;4.97;0.95;;;;;;;12.99;100.00;93142.78;5098204;28;20038;-85
2023/10/26 06:14:32;;;;;;;3.22;0.73;;;;;;;13.02;100.00;93152.66;5097057;28;20106;-85
2023/10/26 06:16:58;;;;;;;2.78;0.60;;;;;;;12.89;100.00;93150.97;5097080;28;20081;-85
2023/10/26 06:19:23;;;;;;;4.25;0.70;;;;;;;12.83;100.00;93151.13;5097213;28;20031;-85
2023/10/26 06:22:07;;;;;;;5.88;1.02;;;;;;;12.93;100.00;93154.53;5098003;28;20042;-85
2023/10/26 06:24:33;;;;;;;6.57;1.02;;;;;;;12.84;100.00;93162.44;5097106;28;20097;-85
2023/10/26 06:26:58;;;;;;;2.38;0.60;;;;;;;13.07;100.00;93170.91;5080737;28;20028;-85
2023/10/26 06:29:24;;;;;;;2.63;1.00;;;;;;;13.34;100.00;93163.75;5096625;28;20441;-85
2023/10/26 06:34:33;;;;;;;3.85;0.77;;;;;;;13.30;100.00;93189.13;5096970;28;20101;-85
2023/10/26 06:36:59;;;;;;;5.85;1.20;;;;;;;13.40;100.00;93188.00;5080028;28;20031;-85
2023/10/26 06:39:43;;;;;;;5.85;0.63;;;;;;;13.80;100.00;93194.91;5079973;28;20024;-85
2023/10/26 06:42:27;;;;;;;10.23;1.20;;;;;;;13.91;100.00;93197.94;5097613;28;20111;-85
2023/10/26 06:44:52;;;;;;;5.65;0.82;;;;;;;13.86;100.00;93188.34;5096379;28;20032;-85
2023/10/26 06:47:18;;;;;;;2.53;0.75;;;;;;;13.74;100.00;93185.59;5096536;28;20024;-85
2023/10/26 06:49:43;;;;;;;2.63;0.68;;;;;;;13.88;100.00;93170.38;5097579;28;20032;-86
2023/10/26 06:52:09;;;;;;;3.22;0.75;;;;;;;14.01;100.00;93160.72;5097712;28;20074;-85
2023/10/26 06:54:34;;;;;;;7.57;0.82;;;;;;;14.11;100.00;93170.13;5097488;28;20030;-85
2023/10/26 06:57:00;;;;;;;4.65;0.75;;;;;;;14.26;100.00;93164.28;5096312;28;20352;-85
2023/10/26 06:59:25;;;;;;;4.43;0.63;;;;;;;14.37;100.00;93172.59;5097512;28;20102;-85
2023/10/26 07:01:51;;;;;;;6.57;1.20;;;;;;;14.17;100.00;93171.47;5096327;28;20039;-85
2023/10/26 07:04:35;;;;;;;5.43;0.82;;;;;;;14.32;100.00;93172.78;5096259;28;20027;-85
2023/10/26 07:07:19;;;;;;;6.65;1.05;;;;;;;14.66;100.00;93178.13;5097333;28;20036;-85
2023/10/26 07:10:04;;;;;;;6.75;1.00;;;;;;;14.10;100.00;93173.84;5096016;28;20082;-85
2023/10/26 07:12:30;;;;;;;2.78;1.00;;;;;;;14.28;100.00;93158.72;5095316;28;20036;-85
2023/10/26 07:14:57;;;;;;;3.25;0.80;;;;;;;14.57;100.00;93173.69;5079256;28;20120;-85
2023/10/26 07:17:25;;;;;;;4.95;0.65;;;;;;;14.75;100.00;93175.47;5079305;28;20028;-85
2023/10/26 07:19:51;;;;;;;5.07;0.85;;;;;;;14.81;100.00;93176.78;5095922;28;20038;-85
2023/10/26 07:22:35;;;;;;;2.80;0.77;;;;;;;15.16;100.00;93181.00;5095888;28;20110;-85
2023/10/26 07:27:45;;;;;;;2.35;0.55;;;;;;;15.21;100.00;93173.66;5095953;28;20407;-85
2023/10/26 07:30:29;;;;;;;4.00;0.65;;;;;;;15.43;100.00;93165.69;5078719;28;20135;-85
2023/10/26 07:32:56;;;;;;;4.28;0.63;;;;;;;15.51;100.00;93143.72;5096398;28;20059;-85
2023/10/26 07:35:22;;;;;;;3.15;0.90;;;;;;;15.45;100.00;93137.09;5096023;28;20040;-85
2023/10/26 07:37:47;;;;;;;4.18;0.77;;;;;;;15.68;100.00;93127.66;5096013;28;20089;-85
2023/10/26 07:40:32;;;;;;;5.35;0.90;;;;;;;15.68;100.00;93109.19;5095903;28;20059;-85
2023/10/26 07:42:57;;;;;;;5.25;1.05;;;;;;;15.68;100.00;93132.94;5096766;28;20314;-85
2023/10/26 07:45:25;;;;;;;3.92;0.60;;;;;;;15.82;100.00;93127.31;5095648;28;20034;-85
2023/10/26 07:47:50;;;;;;;9.85;1.20;;;;;;;16.17;100.00;93120.84;5095640;28;20126;-85
2023/10/26 07:50:19;;;;;;;2.55;0.80;;;;;;;16.31;100.00;93109.91;5096635;28;20119;-85
2023/10/26 07:53:05;;;;;;;4.82;1.20;;;;;;;16.50;100.00;93106.69;5079315;28;20483;-85
2023/10/26 07:55:31;;;;;;;3.60;0.98;;;;;;;16.63;100.00;93109.25;5095550;28;20031;-85
2023/10/26 07:57:57;;;;;;;1.45;0.73;;;;;;;16.91;100.00;93111.91;5095541;28;20423;-85
2023/10/26 08:06:02;;;;;;;4.30;0.57;;;;;;;17.10;100.00;93111.31;5095665;28;20173;-85
2023/10/26 08:08:47;;;;;;;2.85;0.80;;;;;;;16.22;100.00;93112.69;5095530;28;20039;-85
2023/10/26 08:11:31;;;;;;;5.35;0.88;;;;;;;16.14;100.00;93115.44;5095151;28;20032;-85
2023/10/26 08:13:57;;;;;;;2.42;0.50;;;;;;;16.12;100.00;93115.78;5096526;28;20067;-86
2023/10/26 08:16:22;;;;;;;3.80;0.50;;;;;;;16.07;100.00;93119.41;5095257;28;20070;-85
2023/10/26 08:18:48;;;;;;;1.73;0.38;;;;;;;15.95;100.00;93122.84;5095473;28;20040;-86
2023/10/26 08:21:13;;;;;;;1.17;0.52;;;;;;;16.16;100.00;93129.88;5095508;28;20106;-85
2023/10/26 08:23:39;;;;;;;4.60;0.88;;;;;;;16.35;100.00;93131.16;5099221;28;20357;-85
2023/10/26 08:26:08;;;;;;;5.07;0.50;;;;;;;16.54;100.00;93147.19;5099164;28;20032;-86
2023/10/26 08:28:35;;;;;;;1.65;0.50;;;;;;;16.81;100.00;93146.78;5099067;28;20029;-85
2023/10/26 08:31:01;;;;;;;0.82;0.55;;;;;;;16.98;100.00;93152.88;5098840;28;20043;-86
2023/10/26 08:33:29;;;;;;;4.65;0.80;;;;;;;16.90;100.00;93158.00;5099087;28;20425;-85
2023/10/26 08:35:54;;;;;;;5.78;0.63;;;;;;;16.81;100.00;93168.72;5099237;28;20036;-86
2023/10/26 08:38:19;;;;;;;6.72;0.70;;;;;;;17.55;100.00;93193.34;5099299;28;20081;-85
2023/10/26 08:40:52;;;;;;;1.05;0.52;;;;;;;18.21;100.00;93179.78;5100351;28;20098;-85
2023/10/26 08:43:37;;;;;;;3.13;0.60;;;;;;;18.35;100.00;93180.09;5082456;28;20060;-86
2023/10/26 08:46:03;;;;;;;2.38;0.65;;;;;;;18.46;100.00;93182.22;5099399;28;20035;-86
2023/10/26 08:48:30;;;;;;;9.45;0.75;;;;;;;18.34;100.00;93189.16;5098807;28;20024;-86
2023/10/26 08:53:39;;;;;;;7.60;0.52;;;;;;;17.80;100.00;93177.31;5098937;28;20466;-85
2023/10/26 08:56:08;;;;;;;5.38;0.52;;;;;;;18.64;100.00;93191.31;5098916;28;20118;-86
2023/10/26 08:58:33;;;;;;;6.63;0.90;;;;;;;18.39;100.00;93190.78;5098653;28;20032;-85
2023/10/26 09:01:01;;;;;;;3.08;0.57;;;;;;;18.29;100.00;93191.31;5099647;28;20495;-86
2023/10/26 09:03:26;;;;;;;3.22;0.70;;;;;;;18.93;100.00;93196.44;5098561;28;20028;-85
2023/10/26 09:05:53;;;;;;;2.78;0.40;;;;;;;19.64;100.00;93193.59;5098720;28;20089;-85
2023/10/26 09:08:18;;;;;;;3.42;0.80;;;;;;;18.74;100.00;93182.03;5099657;28;20035;-85
2023/10/26 09:10:44;;;;;;;3.47;0.60;;;;;;;18.44;100.00;93177.25;5098222;28;20036;-86
2023/10/26 09:13:09;;;;;;;3.53;0.60;;;;;;;18.58;100.00;93183.97;5098342;28;20035;-85
2023/10/26 09:16:04;;;;;;;1.92;0.93;;;;;;;19.16;100.00;93191.25;5098327;28;20038;-86
2023/10/26 09:18:31;;;;;;;1.35;0.40;;;;;;;19.24;100.00;93189.50;5100048;28;20028;-86
2023/10/26 09:21:21;;;;;;;3.38;0.50;;;;;;;19.60;100.00;93195.44;5098069;28;20019;-86
2023/10/26 09:23:48;;;;;;;2.20;0.80;;;;;;;19.05;100.00;93198.22;5099388;28;20035;-85
2023/10/26 09:26:13;;;;;;;5.00;0.40;;;;;;;19.71;100.00;93194.84;5098121;28;20024;-85
2023/10/26 09:29:11;;;;;;;8.30;0.75;;;;;;;18.66;100.00;93196.28;5080942;28;20134;-86
2023/10/26 09:34:40;;;;;;;2.20;0.50;;;;;;;19.81;100.00;93209.44;5097451;28;20046;-86
2023/10/26 09:37:05;;;;;;;1.42;0.60;;;;;;;19.33;100.00;93200.63;5097936;28;20048;-86
2023/10/26 09:39:34;;;;;;;0.98;0.43;;;;;;;19.59;100.00;93188.56;5098043;28;20157;-86
2023/10/26 09:42:01;;;;;;;1.33;0.30;;;;;;;19.42;100.00;93192.44;5081024;28;20031;-86
2023/10/26 09:44:30;;;;;;;2.90;0.68;;;;;;;19.73;100.00;93195.25;5098054;28;20031;-86
2023/10/26 09:46:56;;;;;;;3.20;0.70;;;;;;;20.20;100.00;93202.09;5081083;28;20024;-86
2023/10/26 09:52:10;;;;;;;2.50;0.57;;;;;;;20.65;100.00;93201.59;5097682;28;20361;-86
2023/10/26 09:54:37;;;;;;;2.70;0.47;;;;;;;20.30;100.00;93200.75;5097515;28;20028;-86
2023/10/26 09:57:24;;;;;;;3.38;0.63;;;;;;;20.69;100.00;93204.31;5097510;28;20031;-86
2023/10/26 10:02:36;;;;;;;3.20;0.68;;;;;;;20.08;100.00;93194.31;5097463;28;20031;-86
2023/10/26 10:05:38;;;;;;;1.45;0.30;;;;;;;19.97;100.00;93199.47;5097589;28;20032;-86
2023/10/26 10:08:04;;;;;;;2.47;0.50;;;;;;;19.83;100.00;93204.53;5097314;28;20031;-86
2023/10/26 10:10:30;;;;;;;2.20;0.43;;;;;;;19.06;100.00;93199.75;5097344;28;20040;-86
2023/10/26 10:13:34;;;;;;;2.97;0.63;;;;;;;20.46;100.00;93197.19;5098207;28;20431;-86
2023/10/26 10:15:59;;;;;;;2.95;0.95;;;;;;;20.20;100.00;93199.44;5097172;28;20429;-86
2023/10/26 10:18:25;;;;;;;1.77;0.73;;;;;;;20.20;100.00;93201.34;5080373;28;20031;-86
2023/10/26 10:20:51;;;;;;;5.68;1.20;;;;;;;20.59;100.00;93203.03;5097115;28;20118;-86
2023/10/26 10:23:29;;;;;;;8.43;1.35;;;;;;;19.14;100.00;93187.38;5096983;28;20170;-85
2023/10/26 10:26:13;;;;;;;4.45;1.00;;;;;;;19.08;100.00;93189.56;5097450;28;20420;-85
2023/10/26 10:28:40;;;;;;;4.32;1.00;;;;;;;19.41;100.00;93198.13;5096961;28;20050;-86
2023/10/26 10:31:06;;;;;;;2.58;0.93;;;;;;;20.16;100.00;93203.94;5096485;28;20032;-86
2023/10/26 10:33:31;;;;;;;1.98;0.60;;;;;;;19.14;100.00;93206.72;5080072;28;20538;-86
2023/10/26 10:36:16;;;;;;;0.47;0.30;;;;;;;19.80;100.00;93218.53;5087247;28;20020;-87
2023/10/26 10:38:41;;;;;;;4.32;0.77;;;;;;;19.41;100.00;93224.69;5088047;28;20020;-87
2023/10/26 10:41:11;;;;;;;0.60;0.35;;;;;;;19.32;100.00;93224.91;5082769;28;20036;-86
2023/10/26 10:43:45;;;;;;;1.00;0.40;;;;;;;18.55;100.00;93224.47;5085897;28;20047;-86
2023/10/26 10:46:15;;;;;;;0.85;0.20;;;;;;;18.50;100.00;93218.28;5075400;28;20118;-87
2023/10/26 10:49:03;;;;;;;2.75;0.60;;;;;;;18.75;100.00;93215.41;5059995;28;20031;-87
2023/10/26 10:51:35;;;;;;;1.45;0.47;;;;;;;18.91;100.00;93225.19;5076678;28;20032;-86
2023/10/26 10:54:04;;;;;;;7.32;2.15;;;;;;;18.18;100.00;93225.53;5076070;28;20028;-87
2023/10/26 10:56:53;;;;;;;1.67;0.77;;;;;;;18.09;100.00;93228.38;5076331;28;20032;-86
2023/10/26 10:59:25;;;;;;;0.60;0.30;;;;;;;18.64;100.00;93230.31;5076272;28;20127;-86
2023/10/26 11:02:06;;;;;;;0.77;0.30;;;;;;;18.83;100.00;93226.19;5075938;28;20028;-87
2023/10/26 11:04:31;;;;;;;1.48;0.20;;;;;;;19.19;100.00;93237.53;5071641;28;20131;-87
2023/10/26 11:06:56;;;;;;;0.82;0.28;;;;;;;19.60;100.00;93208.72;5079192;28;20126;-85
2023/10/26 11:09:24;;;;;;;0.70;0.30;;;;;;;19.51;100.00;93216.16;5097248;28;20400;-87
2023/10/26 11:11:50;;;;;;;0.88;0.28;;;;;;;18.91;100.00;93201.31;5079812;28;20374;-86
2023/10/26 11:14:17;;;;;;;1.05;0.20;;;;;;;18.71;100.00;93206.63;5096123;28;20032;-86
2023/10/26 11:16:42;;;;;;;2.45;0.50;;;;;;;18.99;100.00;93202.22;5079445;28;20028;-86
2023/10/26 11:19:08;;;;;;;1.08;0.30;;;;;;;18.70;100.00;93205.06;5079307;28;20035;-86
2023/10/26 11:21:33;;;;;;;2.35;0.50;;;;;;;18.08;100.00;93187.06;5096065;28;20419;-86
2023/10/26 11:24:18;;;;;;;4.25;0.43;;;;;;;18.42;100.00;93176.84;5095902;28;20038;-86
2023/10/26 11:27:24;;;;;;;1.67;0.50;;;;;;;18.47;100.00;93165.94;5097057;28;20119;-86
2023/10/26 11:30:04;;;;;;;2.78;0.50;;;;;;;18.25;100.00;93159.41;5096500;28;20047;-86
2023/10/26 11:32:30;;;;;;;2.13;0.70;;;;;;;18.61;100.00;93151.44;5079395;28;20084;-86
2023/10/26 11:35:09;;;;;;;3.53;0.60;;;;;;;18.26;100.00;93178.75;5095827;28;20028;-86
2023/10/26 11:37:40;;;;;;;3.28;0.60;;;;;;;17.84;100.00;93162.25;5096025;28;20032;-86
2023/10/26 11:40:08;;;;;;;0.95;0.60;;;;;;;18.07;100.00;93198.75;5079008;28;20039;-86
2023/10/26 11:42:51;;;;;;;7.10;0.77;;;;;;;17.90;100.00;93197.22;5097006;28;20028;-86
2023/10/26 11:45:46;;;;;;;3.25;0.80;;;;;;;18.14;100.00;93217.50;5079356;28;20067;-86
2023/10/26 11:48:11;;;;;;;3.72;0.60;;;;;;;17.57;100.00;93206.22;5095662;28;20349;-86
2023/10/26 11:50:56;;;;;;;2.78;0.40;;;;;;;18.08;100.00;93210.91;5078838;28;20032;-86
2023/10/26 11:53:22;;;;;;;4.13;0.57;;;;;;;17.88;100.00;93199.44;5095773;28;20032;-86
2023/10/26 11:55:49;;;;;;;2.58;0.43;;;;;;;17.87;100.00;93203.97;5079393;28;20030;-86
2023/10/26 11:58:14;;;;;;;1.27;0.32;;;;;;;17.71;100.00;93200.53;5081485;28;20052;-87
2023/10/26 12:00:41;;;;;;;2.92;0.55;;;;;;;17.87;100.00;93198.66;5082605;28;20035;-86
2023/10/26 12:03:07;;;;;;;1.23;0.17;;;;;;;17.77;100.00;93192.00;5083545;28;20028;-86
2023/10/26 12:05:51;;;;;;;4.43;0.60;;;;;;;18.06;100.00;93197.22;5099652;28;20035;-86
2023/10/26 12:08:35;;;;;;;1.17;0.55;;;;;;;18.23;100.00;93186.28;5100180;28;20039;-86
2023/10/26 12:14:03;;;;;;;0.95;0.45;;;;;;;18.47;100.00;93211.03;5100724;28;20340;-86
2023/10/26 12:16:29;;;;;;;0.60;0.30;;;;;;;18.23;100.00;93210.13;5082611;28;20119;-86
2023/10/26 12:18:54;;;;;;;2.08;0.30;;;;;;;18.40;100.00;93196.84;5082613;28;20035;-86
2023/10/26 12:21:38;;;;;;;2.33;0.60;;;;;;;18.23;100.00;93199.53;5099211;28;20028;-86
2023/10/26 12:26:48;;;;;;;2.33;0.30;;;;;;;18.49;100.00;93182.28;5099483;28;20047;-86
2023/10/26 12:29:14;;;;;;;1.40;0.50;;;;;;;18.33;100.00;93178.91;5099158;28;20039;-86
2023/10/26 12:31:58;;;;;;;1.25;0.30;;;;;;;18.34;100.00;93173.25;5100225;28;20024;-85
2023/10/26 12:34:23;;;;;;;1.50;0.35;;;;;;;18.74;100.00;93175.97;5100293;28;20035;-86